Time;durP1;ratioP1;P1;durP2;ratioP2;P2;SDS_P1;SDS_P2;PMS_P1;PMS_P2;Temp;Humidity;BMP_temperature;BMP_pressure;BME280_temperature;BME280_humidity;BME280_pressure;Samples;Min_cycle;Max_cycle;Signal;HPM_P1;HPM_P2
2022/09/16 00:00:42;;;;;;;0.50;0.27;;;15.70;99.90;;;;;;5071209;28;20718;-80
2022/09/16 00:03:08;;;;;;;0.30;0.30;;;15.70;99.90;;;;;;5075416;28;20213;-80
2022/09/16 00:05:36;;;;;;;0.20;0.20;;;15.70;99.90;;;;;;5070320;28;20264;-80
2022/09/16 00:08:02;;;;;;;0.53;0.40;;;15.70;99.90;;;;;;5073338;28;20188;-80
2022/09/16 00:10:27;;;;;;;0.10;0.10;;;15.70;99.90;;;;;;5073233;28;21125;-80
2022/09/16 00:12:53;;;;;;;0.40;0.40;;;15.70;99.90;;;;;;5072892;28;20719;-80
2022/09/16 00:15:19;;;;;;;0.20;0.20;;;15.70;99.90;;;;;;5073610;28;20322;-80
2022/09/16 00:17:44;;;;;;;0.10;0.10;;;15.60;99.90;;;;;;5072672;28;20192;-80
2022/09/16 00:20:10;;;;;;;0.20;0.20;;;15.50;99.90;;;;;;5072021;28;20182;-80
2022/09/16 00:22:36;;;;;;;0.60;0.60;;;15.60;99.90;;;;;;5070970;28;20187;-80
2022/09/16 00:25:01;;;;;;;0.30;0.30;;;15.50;99.90;;;;;;5073858;28;20727;-80
2022/09/16 00:27:27;;;;;;;0.17;0.17;;;15.50;99.90;;;;;;5073234;28;20546;-80
2022/09/16 00:29:52;;;;;;;0.50;0.50;;;15.50;99.90;;;;;;5071887;28;20203;-80
2022/09/16 00:32:18;;;;;;;0.10;0.10;;;15.50;99.90;;;;;;5073435;28;20191;-80
2022/09/16 00:34:44;;;;;;;0.10;0.10;;;15.50;99.90;;;;;;5069130;28;20304;-80
2022/09/16 00:37:09;;;;;;;0.30;0.23;;;15.50;99.90;;;;;;5070945;28;20242;-80
2022/09/16 00:39:36;;;;;;;0.20;0.20;;;15.50;99.90;;;;;;5073235;28;20608;-80
2022/09/16 00:42:02;;;;;;;0.40;0.40;;;15.50;99.90;;;;;;5070935;28;20183;-80
2022/09/16 00:44:58;;;;;;;0.10;0.10;;;15.60;99.90;;;;;;5071031;28;20250;-80
2022/09/16 00:47:28;;;;;;;0.10;0.10;;;15.50;99.90;;;;;;5070527;28;20188;-80
2022/09/16 00:49:58;;;;;;;0.10;0.10;;;15.50;99.90;;;;;;5071060;28;20344;-80
2022/09/16 00:52:25;;;;;;;0.30;0.30;;;15.50;99.90;;;;;;5072518;28;20210;-80
2022/09/16 00:54:51;;;;;;;0.77;0.30;;;15.50;99.90;;;;;;5072200;28;20235;-80
2022/09/16 00:57:17;;;;;;;0.20;0.20;;;15.40;99.90;;;;;;5070645;28;20655;-80
2022/09/16 00:59:48;;;;;;;0.20;0.20;;;15.40;99.90;;;;;;5074877;28;20289;-80
2022/09/16 01:02:17;;;;;;;0.63;0.23;;;15.40;99.90;;;;;;5077491;28;20179;-80
2022/09/16 01:04:52;;;;;;;0.20;0.20;;;15.30;99.90;;;;;;5074128;28;20186;-80
2022/09/16 01:07:38;;;;;;;0.47;0.20;;;15.40;99.90;;;;;;5074049;28;20648;-80
2022/09/16 01:10:05;;;;;;;0.40;0.40;;;15.40;99.90;;;;;;5072902;28;20269;-80
2022/09/16 01:12:32;;;;;;;0.10;0.10;;;15.40;99.90;;;;;;5071916;28;20252;-80
2022/09/16 01:14:59;;;;;;;0.13;0.10;;;15.40;99.90;;;;;;5076788;28;20265;-80
2022/09/16 01:17:46;;;;;;;0.20;0.20;;;15.50;99.90;;;;;;5072740;28;20183;-80
2022/09/16 01:20:56;;;;;;;0.20;0.20;;;15.50;99.90;;;;;;5073203;28;20179;-80
2022/09/16 01:23:39;;;;;;;0.10;0.10;;;15.40;99.90;;;;;;5074484;28;20254;-80
2022/09/16 01:26:34;;;;;;;0.30;0.30;;;15.50;99.90;;;;;;5073696;28;20183;-80
2022/09/16 01:29:27;;;;;;;0.30;0.20;;;15.50;99.90;;;;;;5076009;28;20937;-80
2022/09/16 01:32:15;;;;;;;0.10;0.10;;;15.50;99.90;;;;;;5072546;28;20289;-80
2022/09/16 01:35:03;;;;;;;0.20;0.20;;;15.40;99.90;;;;;;5075642;28;20238;-80
2022/09/16 01:38:14;;;;;;;0.67;0.60;;;15.40;99.90;;;;;;5073690;28;20183;-80
2022/09/16 01:40:52;;;;;;;0.10;0.10;;;15.40;99.90;;;;;;5069375;28;20562;-80
2022/09/16 01:43:53;;;;;;;0.10;0.10;;;15.50;99.90;;;;;;5071732;28;20206;-80
2022/09/16 01:46:38;;;;;;;0.63;0.30;;;15.40;99.90;;;;;;5069201;28;20200;-80
2022/09/16 01:49:15;;;;;;;0.10;0.10;;;15.50;99.90;;;;;;5082678;28;20186;-80
2022/09/16 01:51:53;;;;;;;0.20;0.20;;;15.50;99.90;;;;;;5074833;28;20187;-80
2022/09/16 01:54:26;;;;;;;0.20;0.20;;;15.50;99.90;;;;;;5071589;28;20608;-80
2022/09/16 01:56:58;;;;;;;0.50;0.20;;;15.40;99.90;;;;;;5074908;28;20162;-80
2022/09/16 01:59:33;;;;;;;0.30;0.30;;;15.40;99.90;;;;;;5075575;28;20177;-80
2022/09/16 02:02:19;;;;;;;0.10;0.10;;;15.40;99.90;;;;;;5077225;28;20177;-80
2022/09/16 02:04:50;;;;;;;0.13;0.13;;;15.30;99.90;;;;;;5072892;28;20210;-80
2022/09/16 02:07:18;;;;;;;0.13;0.13;;;15.30;99.90;;;;;;5073813;28;20233;-80
2022/09/16 02:09:49;;;;;;;0.13;0.13;;;15.30;99.90;;;;;;5072690;28;20315;-80
2022/09/16 02:12:20;;;;;;;0.20;0.20;;;15.20;99.90;;;;;;5075117;28;20193;-80
2022/09/16 02:14:48;;;;;;;0.20;0.20;;;15.30;99.90;;;;;;5075311;28;20574;-80
2022/09/16 02:17:18;;;;;;;0.33;0.33;;;15.30;99.90;;;;;;5075143;28;20212;-80
2022/09/16 02:20:00;;;;;;;0.20;0.20;;;15.30;99.90;;;;;;5074429;28;20181;-80
2022/09/16 02:22:35;;;;;;;0.23;0.23;;;15.30;99.90;;;;;;5073537;28;20191;-81
2022/09/16 02:25:04;;;;;;;0.10;0.10;;;15.20;99.90;;;;;;5075840;28;20199;-80
2022/09/16 02:27:31;;;;;;;0.10;0.10;;;15.20;99.90;;;;;;5074471;28;20207;-80
2022/09/16 02:30:04;;;;;;;0.20;0.20;;;15.20;99.90;;;;;;5075891;28;20264;-80
2022/09/16 02:32:32;;;;;;;0.20;0.20;;;15.30;99.90;;;;;;5074043;28;20218;-80
2022/09/16 02:35:00;;;;;;;0.10;0.10;;;15.30;99.90;;;;;;5073533;28;20718;-80
2022/09/16 02:37:48;;;;;;;0.10;0.10;;;15.40;99.90;;;;;;5075179;28;20183;-80
2022/09/16 02:40:30;;;;;;;0.10;0.10;;;15.30;99.90;;;;;;5073209;28;20193;-80
2022/09/16 02:42:57;;;;;;;0.10;0.10;;;15.40;99.90;;;;;;5074142;28;20634;-81
2022/09/16 02:45:26;;;;;;;0.10;0.10;;;15.40;99.90;;;;;;5076158;28;20188;-80
2022/09/16 02:48:18;;;;;;;0.10;0.10;;;15.40;99.90;;;;;;5089441;27;20653;-80
2022/09/16 02:50:55;;;;;;;0.17;0.17;;;15.40;99.90;;;;;;5080948;28;20192;-80
2022/09/16 02:53:35;;;;;;;0.10;0.10;;;15.40;99.90;;;;;;5081127;28;20201;-80
2022/09/16 02:56:24;;;;;;;0.33;0.33;;;15.30;99.90;;;;;;5075462;28;20600;-80
2022/09/16 02:58:50;;;;;;;0.10;0.10;;;15.30;99.90;;;;;;5073210;28;20192;-80
2022/09/16 03:01:18;;;;;;;0.20;0.20;;;15.40;99.90;;;;;;5073908;28;20550;-80
2022/09/16 03:03:43;;;;;;;0.37;0.37;;;15.40;99.90;;;;;;5071960;28;20629;-80
2022/09/16 03:06:19;;;;;;;0.20;0.20;;;15.40;99.90;;;;;;5072889;28;20202;-80
2022/09/16 03:08:46;;;;;;;0.20;0.20;;;15.40;99.90;;;;;;5072836;28;20180;-80
2022/09/16 03:11:28;;;;;;;0.10;0.10;;;15.50;99.90;;;;;;5073152;28;20237;-80
2022/09/16 03:14:27;;;;;;;0.10;0.10;;;15.50;99.90;;;;;;5074855;28;20218;-80
2022/09/16 03:16:59;;;;;;;0.10;0.10;;;15.50;99.90;;;;;;5072361;28;20175;-80
2022/09/16 03:19:59;;;;;;;0.10;0.10;;;15.40;99.90;;;;;;5072382;28;20200;-80
2022/09/16 03:22:47;;;;;;;0.20;0.20;;;15.50;99.90;;;;;;5019960;28;20195;-80
2022/09/16 03:25:44;;;;;;;0.20;0.20;;;15.40;99.90;;;;;;5072172;28;20188;-81
2022/09/16 03:28:23;;;;;;;0.10;0.10;;;15.40;99.90;;;;;;5065928;28;20202;-80
2022/09/16 03:31:04;;;;;;;0.10;0.10;;;15.50;99.90;;;;;;5073949;28;20664;-80
2022/09/16 03:33:43;;;;;;;0.10;0.10;;;15.40;99.90;;;;;;5072957;28;20256;-81
2022/09/16 03:36:14;;;;;;;0.20;0.20;;;15.50;99.90;;;;;;5073555;28;20191;-80
2022/09/16 03:38:41;;;;;;;0.27;0.27;;;15.50;99.90;;;;;;5071926;28;20185;-79
2022/09/16 03:41:08;;;;;;;0.10;0.10;;;15.50;99.90;;;;;;5073948;28;20191;-80
2022/09/16 03:43:34;;;;;;;0.30;0.30;;;15.50;99.90;;;;;;5072541;28;20214;-80
2022/09/16 03:46:00;;;;;;;0.20;0.20;;;15.40;99.90;;;;;;5088643;28;20187;-80
2022/09/16 03:48:25;;;;;;;0.40;0.40;;;15.40;99.90;;;;;;5072701;28;20213;-80
2022/09/16 03:50:52;;;;;;;0.10;0.10;;;15.40;99.90;;;;;;5072450;28;20579;-80
2022/09/16 03:53:17;;;;;;;0.10;0.10;;;15.50;99.90;;;;;;5075277;28;20260;-80
2022/09/16 03:55:43;;;;;;;0.50;0.43;;;15.40;99.90;;;;;;5071144;28;20177;-80
2022/09/16 03:58:08;;;;;;;0.17;0.17;;;15.40;99.90;;;;;;5073663;28;20185;-80
2022/09/16 04:00:34;;;;;;;0.17;0.17;;;15.40;99.90;;;;;;5064125;28;20281;-80
2022/09/16 04:03:00;;;;;;;0.20;0.20;;;15.40;99.90;;;;;;5067531;28;20202;-80
2022/09/16 04:05:26;;;;;;;2.10;0.33;;;15.40;99.90;;;;;;5072529;28;20185;-81
2022/09/16 04:07:51;;;;;;;0.10;0.10;;;15.40;99.90;;;;;;5071311;28;20263;-80
2022/09/16 04:10:17;;;;;;;0.37;0.33;;;15.40;99.90;;;;;;5072413;28;20303;-81
2022/09/16 04:12:43;;;;;;;0.40;0.40;;;15.40;99.90;;;;;;5070907;28;20218;-80
2022/09/16 04:15:09;;;;;;;0.53;0.53;;;15.30;99.90;;;;;;5072778;28;20215;-80
2022/09/16 04:17:35;;;;;;;0.10;0.10;;;15.30;99.90;;;;;;5071446;28;21167;-80
2022/09/16 04:20:01;;;;;;;0.10;0.10;;;15.30;99.90;;;;;;5072072;28;20278;-80
2022/09/16 04:22:29;;;;;;;0.10;0.10;;;15.30;99.90;;;;;;5069940;28;20183;-80
2022/09/16 04:24:55;;;;;;;0.20;0.20;;;15.20;99.90;;;;;;5072373;28;20202;-81
2022/09/16 04:27:20;;;;;;;0.27;0.27;;;15.20;99.90;;;;;;5071206;28;20186;-80
2022/09/16 04:29:46;;;;;;;0.37;0.37;;;15.10;99.90;;;;;;5072820;28;20561;-80
2022/09/16 04:32:11;;;;;;;0.23;0.23;;;15.20;99.90;;;;;;5072030;28;20178;-80
2022/09/16 04:34:37;;;;;;;0.20;0.20;;;15.20;99.90;;;;;;5068433;28;20213;-80
2022/09/16 04:37:03;;;;;;;1.27;1.27;;;15.20;99.90;;;;;;5071570;28;20177;-80
2022/09/16 04:39:29;;;;;;;0.30;0.30;;;15.20;99.90;;;;;;5069488;28;20186;-80
2022/09/16 04:41:55;;;;;;;0.20;0.20;;;15.20;99.90;;;;;;5069254;28;20182;-81
2022/09/16 04:44:20;;;;;;;0.77;0.77;;;15.30;99.90;;;;;;5072639;28;20279;-80
2022/09/16 04:46:46;;;;;;;0.20;0.20;;;15.20;99.90;;;;;;5068943;28;20218;-81
2022/09/16 04:49:11;;;;;;;0.40;0.40;;;15.00;99.90;;;;;;5070421;28;20587;-80
2022/09/16 04:51:37;;;;;;;0.20;0.20;;;14.80;99.90;;;;;;5071531;28;20660;-80
2022/09/16 04:54:03;;;;;;;0.10;0.10;;;14.80;99.90;;;;;;5072037;28;20279;-80
2022/09/16 04:56:30;;;;;;;0.10;0.10;;;14.80;99.90;;;;;;5071010;28;20973;-80
2022/09/16 04:58:59;;;;;;;0.20;0.20;;;14.90;99.90;;;;;;5070278;28;20187;-80
2022/09/16 05:01:37;;;;;;;0.13;0.13;;;14.90;99.90;;;;;;5072146;28;20270;-80
2022/09/16 05:04:05;;;;;;;0.30;0.30;;;15.00;99.90;;;;;;5079290;28;20263;-80
2022/09/16 05:06:39;;;;;;;0.33;0.20;;;15.00;99.90;;;;;;5070098;28;20247;-80
2022/09/16 05:09:06;;;;;;;0.10;0.10;;;15.00;99.90;;;;;;5070888;28;20195;-80
2022/09/16 05:11:35;;;;;;;0.73;0.30;;;15.00;99.90;;;;;;5072478;28;20553;-80
2022/09/16 05:14:02;;;;;;;0.20;0.20;;;15.00;99.90;;;;;;5069227;28;20207;-81
2022/09/16 05:16:28;;;;;;;0.77;0.67;;;14.90;99.90;;;;;;5073209;28;20184;-81
2022/09/16 05:18:56;;;;;;;0.10;0.10;;;14.90;99.90;;;;;;5071367;28;20650;-81
2022/09/16 05:21:24;;;;;;;0.57;0.50;;;14.90;99.90;;;;;;5071091;28;20197;-81
2022/09/16 05:23:50;;;;;;;0.10;0.10;;;15.00;99.90;;;;;;5070875;28;20307;-81
2022/09/16 05:26:19;;;;;;;0.30;0.30;;;15.00;99.90;;;;;;5071386;28;20272;-81
2022/09/16 05:28:45;;;;;;;0.20;0.20;;;15.00;99.90;;;;;;5078625;28;20276;-81
2022/09/16 05:31:17;;;;;;;0.13;0.13;;;15.10;99.90;;;;;;5069156;28;20199;-81
2022/09/16 05:33:45;;;;;;;0.30;0.30;;;15.10;99.90;;;;;;5070455;28;20222;-81
2022/09/16 05:36:14;;;;;;;0.13;0.13;;;15.20;99.90;;;;;;5070025;28;20189;-81
2022/09/16 05:38:40;;;;;;;0.10;0.10;;;15.20;99.90;;;;;;5080016;28;20198;-80
2022/09/16 05:41:06;;;;;;;0.10;0.10;;;15.20;99.90;;;;;;5070424;28;20197;-80
2022/09/16 05:43:32;;;;;;;0.20;0.20;;;15.30;99.90;;;;;;5072746;28;20209;-80
2022/09/16 05:45:58;;;;;;;0.20;0.20;;;15.20;99.90;;;;;;5074211;28;20182;-80
2022/09/16 05:48:24;;;;;;;0.10;0.10;;;15.30;99.90;;;;;;5073278;28;20201;-80
2022/09/16 05:50:55;;;;;;;0.20;0.20;;;15.30;99.90;;;;;;5075375;28;20571;-80
2022/09/16 05:53:22;;;;;;;0.20;0.20;;;15.40;99.90;;;;;;5075971;28;20216;-80
2022/09/16 05:55:59;;;;;;;0.27;0.27;;;15.40;99.90;;;;;;5074807;28;20190;-80
2022/09/16 05:58:26;;;;;;;0.83;0.47;;;15.40;99.90;;;;;;5074507;28;20183;-81
2022/09/16 06:01:17;;;;;;;0.20;0.20;;;15.40;99.90;;;;;;5074320;28;21153;-81
2022/09/16 06:03:44;;;;;;;0.20;0.20;;;15.40;99.90;;;;;;5073157;28;20221;-80
2022/09/16 06:06:12;;;;;;;1.23;1.13;;;15.40;99.90;;;;;;5075533;28;20210;-81
2022/09/16 06:08:38;;;;;;;0.20;0.20;;;15.50;99.90;;;;;;5072281;28;20191;-80
2022/09/16 06:11:06;;;;;;;0.10;0.10;;;15.40;99.90;;;;;;5073984;28;20195;-80
2022/09/16 06:13:33;;;;;;;0.17;0.17;;;15.40;99.90;;;;;;5075719;28;20206;-80
2022/09/16 06:15:59;;;;;;;0.20;0.20;;;15.50;99.90;;;;;;5074036;28;20619;-80
2022/09/16 06:18:27;;;;;;;0.20;0.20;;;15.60;99.90;;;;;;5074870;28;21035;-80
2022/09/16 06:20:53;;;;;;;0.57;0.57;;;15.50;99.90;;;;;;5074228;28;20202;-80
2022/09/16 06:23:19;;;;;;;1.50;0.20;;;15.50;99.90;;;;;;5073447;28;20767;-80
2022/09/16 06:25:45;;;;;;;0.20;0.20;;;15.40;99.90;;;;;;5074690;28;20214;-80
2022/09/16 06:28:10;;;;;;;0.20;0.20;;;15.40;99.90;;;;;;5073613;28;20193;-80
2022/09/16 06:30:40;;;;;;;1.50;0.33;;;15.40;99.90;;;;;;5075466;28;20196;-80
2022/09/16 06:33:06;;;;;;;0.70;0.47;;;15.40;99.90;;;;;;5073633;28;20216;-80
2022/09/16 06:35:34;;;;;;;0.27;0.27;;;15.40;99.90;;;;;;5072875;28;20210;-80
2022/09/16 06:38:00;;;;;;;0.10;0.10;;;15.40;99.90;;;;;;5075725;28;20208;-80
2022/09/16 06:40:26;;;;;;;0.10;0.10;;;15.40;99.90;;;;;;5072939;28;20191;-80
2022/09/16 06:42:53;;;;;;;1.20;0.57;;;15.40;99.90;;;;;;5073321;28;20722;-81
2022/09/16 06:45:19;;;;;;;0.33;0.33;;;15.40;99.90;;;;;;5071482;28;20202;-80
2022/09/16 06:47:44;;;;;;;0.40;0.40;;;15.40;99.90;;;;;;5076244;28;20197;-82
2022/09/16 06:50:10;;;;;;;0.60;0.60;;;15.40;99.90;;;;;;5070938;28;20194;-82
2022/09/16 06:52:35;;;;;;;0.57;0.37;;;15.40;99.90;;;;;;5074753;28;20559;-83
2022/09/16 06:55:01;;;;;;;0.20;0.20;;;15.60;99.90;;;;;;5074026;28;20288;-83
2022/09/16 06:57:27;;;;;;;0.10;0.10;;;15.60;99.90;;;;;;5072766;28;20186;-83
2022/09/16 06:59:52;;;;;;;0.50;0.50;;;15.70;99.90;;;;;;5073605;28;20182;-82
2022/09/16 07:02:18;;;;;;;0.20;0.20;;;15.80;99.90;;;;;;5074634;28;20189;-83
2022/09/16 07:04:44;;;;;;;1.03;0.60;;;15.70;99.90;;;;;;5074609;28;20273;-82
2022/09/16 07:07:11;;;;;;;0.17;0.17;;;15.80;99.90;;;;;;5073930;28;20197;-82
2022/09/16 07:09:37;;;;;;;0.17;0.17;;;15.90;99.90;;;;;;5074713;28;20186;-83
2022/09/16 07:12:03;;;;;;;0.40;0.40;;;16.00;99.90;;;;;;5075898;28;20696;-82
2022/09/16 07:14:31;;;;;;;0.37;0.30;;;16.20;99.90;;;;;;5074144;28;20219;-83
2022/09/16 07:16:57;;;;;;;4.67;0.30;;;16.30;99.90;;;;;;5075019;28;20178;-82
2022/09/16 07:19:24;;;;;;;0.20;0.20;;;16.30;99.90;;;;;;5071783;28;20217;-83
2022/09/16 07:21:49;;;;;;;0.20;0.20;;;16.50;99.90;;;;;;5070813;28;20271;-83
2022/09/16 07:24:15;;;;;;;3.80;0.30;;;16.60;99.90;;;;;;5069977;28;20324;-80
2022/09/16 07:26:42;;;;;;;0.50;0.50;;;16.80;99.90;;;;;;5071093;28;20287;-81
2022/09/16 07:29:13;;;;;;;1.43;1.33;;;16.90;99.90;;;;;;5075047;28;20236;-81
2022/09/16 07:31:39;;;;;;;0.10;0.10;;;17.00;99.90;;;;;;5071222;28;20190;-81
2022/09/16 07:34:07;;;;;;;0.17;0.17;;;17.10;99.90;;;;;;5071481;28;20215;-81
2022/09/16 07:36:38;;;;;;;0.17;0.17;;;17.20;99.90;;;;;;5070429;28;20287;-81
2022/09/16 07:39:04;;;;;;;0.30;0.30;;;17.10;99.90;;;;;;5069258;28;20201;-81
2022/09/16 07:41:33;;;;;;;0.20;0.20;;;17.30;99.90;;;;;;5073119;28;20738;-81
2022/09/16 07:44:00;;;;;;;0.47;0.47;;;17.50;99.90;;;;;;5069250;28;20272;-81
2022/09/16 07:46:28;;;;;;;1.50;0.40;;;17.70;99.90;;;;;;5073339;28;20286;-81
2022/09/16 07:48:54;;;;;;;0.10;0.10;;;17.60;99.90;;;;;;5072099;28;20188;-80
2022/09/16 07:51:23;;;;;;;0.57;0.20;;;17.20;99.90;;;;;;5071587;28;20210;-82
2022/09/16 07:53:53;;;;;;;1.13;0.47;;;16.80;99.90;;;;;;5079133;28;20219;-81
2022/09/16 07:56:24;;;;;;;0.20;0.20;;;16.50;99.90;;;;;;5073047;28;20559;-81
2022/09/16 07:58:50;;;;;;;0.10;0.10;;;16.80;99.90;;;;;;5071707;28;20190;-80
2022/09/16 08:01:16;;;;;;;0.70;0.70;;;17.10;99.90;;;;;;5072493;28;20192;-81
2022/09/16 08:03:43;;;;;;;0.20;0.20;;;17.40;99.90;;;;;;5071511;28;20681;-81
2022/09/16 08:06:15;;;;;;;0.37;0.37;;;17.70;99.90;;;;;;5071994;28;20275;-81
2022/09/16 08:08:41;;;;;;;0.30;0.30;;;17.70;99.90;;;;;;5073355;28;20202;-81
2022/09/16 08:11:07;;;;;;;0.20;0.20;;;17.70;99.90;;;;;;5072698;28;20192;-81
2022/09/16 08:13:35;;;;;;;0.20;0.20;;;17.80;99.90;;;;;;5070822;28;20631;-81
2022/09/16 08:16:04;;;;;;;0.97;0.30;;;17.90;99.90;;;;;;5069020;28;20192;-81
2022/09/16 08:18:30;;;;;;;0.20;0.20;;;18.30;99.90;;;;;;5072952;28;20192;-81
2022/09/16 08:20:55;;;;;;;0.50;0.50;;;18.40;99.90;;;;;;5069786;28;20721;-81
2022/09/16 08:23:22;;;;;;;0.10;0.10;;;18.30;99.90;;;;;;5071455;28;20212;-81
2022/09/16 08:25:58;;;;;;;0.10;0.10;;;18.40;99.90;;;;;;5072636;28;20670;-81
2022/09/16 08:28:24;;;;;;;0.10;0.10;;;18.40;99.90;;;;;;5073014;28;20181;-81
2022/09/16 08:30:51;;;;;;;0.10;0.10;;;18.70;99.90;;;;;;5074649;28;20200;-81
2022/09/16 08:33:19;;;;;;;0.30;0.30;;;19.10;99.90;;;;;;5073144;28;20277;-81
2022/09/16 08:35:46;;;;;;;0.27;0.27;;;19.00;99.90;;;;;;5071305;28;20931;-81
2022/09/16 08:38:12;;;;;;;0.50;0.40;;;19.30;99.90;;;;;;5070744;28;20229;-81
2022/09/16 08:40:43;;;;;;;0.10;0.10;;;19.30;99.90;;;;;;5070312;28;20273;-81
2022/09/16 08:43:34;;;;;;;0.30;0.30;;;19.80;99.90;;;;;;5069691;28;20256;-81
2022/09/16 08:46:18;;;;;;;0.40;0.40;;;19.80;99.90;;;;;;5073475;28;20185;-81
2022/09/16 08:48:55;;;;;;;0.77;0.53;;;19.40;99.90;;;;;;5070159;28;20193;-81
2022/09/16 08:51:21;;;;;;;0.10;0.10;;;18.90;99.90;;;;;;5072648;28;20252;-81
2022/09/16 08:54:01;;;;;;;0.20;0.20;;;18.70;99.90;;;;;;5070125;28;21045;-81
2022/09/16 08:56:30;;;;;;;0.20;0.20;;;18.80;99.90;;;;;;5070934;28;20188;-81
2022/09/16 08:59:00;;;;;;;0.87;0.87;;;18.90;99.90;;;;;;5072402;28;20234;-81
2022/09/16 09:01:41;;;;;;;0.10;0.10;;;19.00;99.90;;;;;;5070429;28;20183;-81
2022/09/16 09:04:07;;;;;;;0.17;0.17;;;19.00;99.90;;;;;;5070112;28;20796;-81
2022/09/16 09:06:32;;;;;;;0.67;0.30;;;18.70;99.90;;;;;;5070435;28;20564;-81
2022/09/16 09:09:26;;;;;;;0.20;0.20;;;18.80;99.90;;;;;;5071994;28;20196;-81
2022/09/16 09:12:01;;;;;;;0.20;0.20;;;18.50;99.90;;;;;;5070388;28;20188;-81
2022/09/16 09:14:39;;;;;;;0.23;0.23;;;18.30;99.90;;;;;;5068820;28;20207;-81
2022/09/16 09:17:20;;;;;;;0.57;0.57;;;18.30;99.90;;;;;;5069090;28;20175;-81
2022/09/16 09:19:51;;;;;;;0.77;0.23;;;18.30;99.90;;;;;;5072621;28;20184;-81
2022/09/16 09:22:26;;;;;;;0.20;0.20;;;18.40;99.90;;;;;;5082116;28;20186;-81
2022/09/16 09:24:58;;;;;;;0.20;0.20;;;18.20;99.90;;;;;;5073794;28;20959;-81
2022/09/16 09:28:21;;;;;;;3.53;0.20;;;18.60;99.90;;;;;;5074595;28;20187;-81
2022/09/16 09:31:15;;;;;;;2.80;0.93;;;18.60;99.90;;;;;;5026135;28;20309;-81
2022/09/16 09:34:14;;;;;;;0.10;0.10;;;18.50;99.90;;;;;;5062359;28;20254;-81
2022/09/16 09:36:55;;;;;;;0.23;0.10;;;18.50;99.90;;;;;;5072930;28;20191;-81
2022/09/16 09:39:45;;;;;;;0.20;0.20;;;18.40;99.90;;;;;;5073217;28;20187;-82
2022/09/16 09:42:34;;;;;;;0.10;0.10;;;18.40;99.90;;;;;;5074162;28;20175;-82
2022/09/16 09:45:16;;;;;;;0.20;0.20;;;18.10;99.90;;;;;;5074734;28;20189;-82
2022/09/16 09:47:48;;;;;;;0.10;0.10;;;17.90;99.90;;;;;;5083269;28;20185;-81
2022/09/16 09:50:27;;;;;;;0.10;0.10;;;17.90;99.90;;;;;;5076457;28;20200;-82
2022/09/16 09:53:10;;;;;;;0.30;0.20;;;17.60;99.90;;;;;;5073396;28;20358;-82
2022/09/16 09:55:37;;;;;;;0.10;0.10;;;17.30;99.90;;;;;;5074238;28;20226;-82
2022/09/16 09:58:25;;;;;;;0.10;0.10;;;17.30;99.90;;;;;;5072606;28;20173;-82
2022/09/16 10:00:57;;;;;;;0.10;0.10;;;17.30;99.90;;;;;;5075473;28;20215;-82
2022/09/16 10:03:23;;;;;;;0.10;0.10;;;17.40;99.90;;;;;;5073949;28;20211;-82
2022/09/16 10:05:49;;;;;;;0.23;0.23;;;17.50;99.90;;;;;;5078049;28;20188;-81
2022/09/16 10:08:28;;;;;;;0.10;0.10;;;17.70;99.90;;;;;;5074318;28;20187;-82
2022/09/16 10:11:02;;;;;;;1.17;0.30;;;17.80;99.90;;;;;;5076736;28;20185;-81
2022/09/16 10:13:29;;;;;;;0.20;0.20;;;17.80;99.90;;;;;;5075250;28;20292;-81
2022/09/16 10:16:38;;;;;;;0.10;0.10;;;18.00;99.90;;;;;;5074025;28;20325;-82
2022/09/16 10:19:15;;;;;;;0.10;0.10;;;18.10;99.90;;;;;;5041174;28;20192;-82
2022/09/16 10:21:52;;;;;;;0.47;0.47;;;18.00;99.90;;;;;;5073940;28;20234;-81
2022/09/16 10:24:35;;;;;;;1.23;0.70;;;18.10;99.90;;;;;;5075747;28;20246;-81
2022/09/16 10:27:18;;;;;;;0.10;0.10;;;18.00;99.90;;;;;;5075837;28;20184;-82
2022/09/16 10:29:43;;;;;;;0.40;0.40;;;18.20;99.90;;;;;;5075521;28;20202;-82
2022/09/16 10:32:17;;;;;;;0.30;0.30;;;18.30;99.90;;;;;;5072017;28;20208;-82
2022/09/16 10:34:44;;;;;;;0.10;0.10;;;18.40;99.90;;;;;;5074333;28;20626;-81
2022/09/16 10:37:11;;;;;;;0.10;0.10;;;18.40;99.90;;;;;;5074700;28;20189;-81
2022/09/16 10:39:39;;;;;;;0.10;0.10;;;18.50;99.90;;;;;;5074621;28;20562;-82
2022/09/16 10:42:19;;;;;;;0.10;0.10;;;18.50;99.90;;;;;;5077477;28;20702;-81
2022/09/16 10:44:47;;;;;;;0.10;0.10;;;18.50;99.90;;;;;;5074411;28;20216;-81
2022/09/16 10:47:20;;;;;;;0.40;0.20;;;18.70;99.90;;;;;;5076664;28;20702;-82
2022/09/16 10:49:55;;;;;;;0.20;0.20;;;18.60;99.90;;;;;;5071777;28;20207;-82
2022/09/16 10:52:22;;;;;;;0.10;0.10;;;18.50;99.90;;;;;;5073989;28;20191;-82
2022/09/16 10:54:48;;;;;;;0.30;0.17;;;18.50;99.90;;;;;;5074305;28;20204;-81
2022/09/16 10:57:23;;;;;;;0.20;0.20;;;18.40;99.90;;;;;;5074210;28;20185;-82
2022/09/16 11:00:16;;;;;;;1.40;0.20;;;18.30;99.90;;;;;;5074984;28;20266;-82
2022/09/16 11:03:16;;;;;;;0.20;0.20;;;18.50;99.90;;;;;;5068735;28;20207;-81
2022/09/16 11:06:03;;;;;;;0.63;0.53;;;18.30;99.90;;;;;;5072372;28;20193;-82
2022/09/16 11:08:53;;;;;;;1.50;0.20;;;18.60;99.90;;;;;;5070637;28;20185;-82
2022/09/16 11:11:43;;;;;;;0.10;0.10;;;18.80;99.90;;;;;;5074103;28;20200;-82
2022/09/16 11:14:27;;;;;;;0.10;0.10;;;19.10;99.90;;;;;;5072497;28;20212;-81
2022/09/16 11:17:21;;;;;;;0.10;0.10;;;19.30;99.90;;;;;;5075659;28;20186;-81
2022/09/16 11:19:53;;;;;;;0.17;0.17;;;19.70;99.90;;;;;;5074525;28;20178;-81
2022/09/16 11:22:29;;;;;;;0.53;0.53;;;20.00;99.90;;;;;;5072359;28;20177;-81
2022/09/16 11:25:19;;;;;;;0.10;0.10;;;20.00;99.90;;;;;;5072880;28;20180;-82
2022/09/16 11:28:03;;;;;;;0.20;0.20;;;20.20;99.90;;;;;;5071069;28;20186;-81
2022/09/16 11:30:36;;;;;;;0.10;0.10;;;20.20;99.90;;;;;;5072993;28;20279;-83
2022/09/16 11:33:31;;;;;;;0.10;0.10;;;20.10;99.90;;;;;;5074077;28;20209;-82
2022/09/16 11:36:12;;;;;;;0.20;0.20;;;19.90;99.90;;;;;;5074906;28;20299;-82
2022/09/16 11:38:53;;;;;;;0.10;0.10;;;19.20;99.90;;;;;;5076490;28;20229;-81
2022/09/16 11:41:30;;;;;;;0.10;0.10;;;18.70;99.90;;;;;;5074452;28;20702;-80
2022/09/16 11:44:01;;;;;;;0.10;0.10;;;18.60;99.90;;;;;;5073288;28;20211;-80
2022/09/16 11:46:30;;;;;;;0.10;0.10;;;18.30;99.90;;;;;;5073431;28;20241;-81
2022/09/16 11:49:19;;;;;;;0.83;0.30;;;18.40;99.90;;;;;;5074166;28;20190;-81
2022/09/16 11:52:14;;;;;;;0.40;0.37;;;18.30;99.90;;;;;;5075521;28;20192;-81
2022/09/16 11:54:42;;;;;;;0.20;0.20;;;18.30;99.90;;;;;;5074089;28;20209;-81
2022/09/16 11:57:13;;;;;;;0.20;0.20;;;18.70;99.90;;;;;;5071184;28;20205;-82
2022/09/16 12:00:01;;;;;;;0.20;0.20;;;18.70;99.90;;;;;;5071478;28;20666;-82
2022/09/16 12:02:35;;;;;;;0.10;0.10;;;18.40;99.90;;;;;;5073461;28;20212;-82
2022/09/16 12:05:06;;;;;;;0.20;0.20;;;18.50;99.90;;;;;;5075783;28;20184;-82
2022/09/16 12:07:41;;;;;;;0.23;0.23;;;18.90;99.90;;;;;;5074866;28;20301;-82
2022/09/16 12:10:22;;;;;;;0.20;0.20;;;19.30;99.90;;;;;;5072188;28;20262;-82
2022/09/16 12:13:06;;;;;;;0.17;0.17;;;19.10;99.90;;;;;;5072402;28;20208;-82
2022/09/16 12:15:39;;;;;;;0.90;0.90;;;19.20;99.90;;;;;;5075347;28;20268;-82
2022/09/16 12:18:21;;;;;;;0.10;0.10;;;19.40;99.90;;;;;;5075007;28;20184;-82
2022/09/16 12:20:53;;;;;;;0.10;0.10;;;18.80;99.90;;;;;;5073052;28;20227;-82
2022/09/16 12:23:25;;;;;;;0.17;0.17;;;18.90;99.90;;;;;;5069268;28;20222;-82
2022/09/16 12:26:10;;;;;;;0.10;0.10;;;19.00;99.90;;;;;;5068785;28;20209;-82
2022/09/16 12:29:05;;;;;;;0.17;0.17;;;19.00;99.90;;;;;;5068087;28;20185;-82
2022/09/16 12:31:43;;;;;;;0.10;0.10;;;18.90;99.90;;;;;;5067657;28;20183;-81
2022/09/16 12:34:30;;;;;;;0.20;0.20;;;19.00;99.90;;;;;;5069332;28;20264;-81
2022/09/16 12:37:06;;;;;;;0.50;0.43;;;19.00;99.90;;;;;;5072055;28;20723;-81
2022/09/16 12:39:31;;;;;;;0.10;0.10;;;18.90;99.90;;;;;;5069034;28;20184;-81
2022/09/16 12:42:11;;;;;;;0.20;0.20;;;19.00;99.90;;;;;;5070850;28;20192;-81
2022/09/16 12:44:59;;;;;;;0.20;0.20;;;19.10;99.90;;;;;;5067558;28;20203;-81
2022/09/16 12:47:56;;;;;;;0.20;0.20;;;19.20;99.90;;;;;;5071730;28;20194;-81
2022/09/16 12:51:07;;;;;;;0.10;0.10;;;19.40;99.90;;;;;;5071560;28;20192;-81
2022/09/16 12:53:53;;;;;;;0.20;0.20;;;19.80;99.90;;;;;;4979953;28;20223;-82
2022/09/16 12:56:34;;;;;;;0.30;0.30;;;19.90;99.90;;;;;;5079860;28;20197;-81
2022/09/16 12:59:37;;;;;;;0.20;0.20;;;19.60;99.90;;;;;;5069732;28;20207;-81
2022/09/16 13:02:22;;;;;;;0.20;0.20;;;18.80;99.90;;;;;;5073045;28;20180;-81
2022/09/16 13:04:54;;;;;;;0.10;0.10;;;19.00;99.90;;;;;;5062704;28;20407;-81
2022/09/16 13:07:31;;;;;;;0.13;0.13;;;18.90;99.90;;;;;;5073648;28;20193;-81
2022/09/16 13:10:06;;;;;;;0.20;0.20;;;18.80;99.90;;;;;;5075069;28;21086;-81
2022/09/16 13:12:32;;;;;;;0.43;0.43;;;18.70;99.90;;;;;;5075439;28;20191;-81
2022/09/16 13:15:04;;;;;;;0.10;0.10;;;18.60;99.90;;;;;;5075487;28;20306;-82
2022/09/16 13:17:39;;;;;;;0.27;0.27;;;18.40;99.90;;;;;;5074832;28;20177;-82
2022/09/16 13:20:20;;;;;;;0.10;0.10;;;18.30;99.90;;;;;;5074813;28;20177;-81